Super Servant 4 — PJPO — position and weather

sailwx.info

Track history (hours):
 
Tides and Currents Weather Stations Pressure Air Temp Water Temp Dewpoint Dewpoint Depression Visibility Wind Speed Wind Dir Waves Ship Positions

Super Servant 4

Last reported at 2016-Sep-29 23:33 UTC. Time now 2016-Oct-01 07:05 UTC.
Position N 26°07' W 079°60'.

Length 139 m; beam 32 m.

Type: Cargo ship. MMSI: 306157000.

Date/timePositionNaut miles runAvg speedWind from/ knotsBaromVisibWave heightAir tempDewpointWater temp
2016-Sep-29 23:33N 26°07' W 079°60'7 3.4
2016-Sep-29 21:33N 26°06' W 080°07'0 0.0
2016-Sep-29 20:33N 26°06' W 080°07'0 0.0
2016-Sep-29 19:33N 26°06' W 080°07'0 0.0
2016-Sep-29 16:27N 26°06' W 080°07'0 0.0
2016-Sep-29 15:27N 26°06' W 080°07'0 0.0
2016-Sep-29 14:30N 26°06' W 080°07'0 0.0
2016-Sep-29 13:30N 26°06' W 080°07'0 0.0
2016-Sep-29 08:33N 26°06' W 080°07'0 0.0
2016-Sep-29 07:33N 26°06' W 080°07'0 0.0
2016-Sep-29 00:30N 26°06' W 080°07'0 0.0
2016-Sep-28 21:30N 26°06' W 080°07'0 0.0
2016-Sep-28 19:33N 26°06' W 080°07'0 0.0
2016-Sep-28 16:33N 26°06' W 080°07'0 0.0
2016-Sep-28 15:33N 26°06' W 080°07'0 0.0
2016-Sep-28 12:27N 26°06' W 080°07'5 1.2
2016-Sep-28 08:33N 26°04' W 080°03'34 6.7
2016-Sep-28 03:33N 25°40' W 079°37'10 9.2
2016-Sep-28 02:25N 25°49' W 079°31'8 9.4
2016-Sep-28 01:33N 25°56' W 079°28'2010.1
2016-Sep-27 23:33N 26°09' W 079°10'  
Track history (hours):
 
Tides and Currents Weather Stations Pressure Air Temp Water Temp Dewpoint Dewpoint Depression Visibility Wind Speed Wind Dir Waves Ship Positions

Super Servant 4

Last reported at 2016-Sep-29 23:33 UTC. Time now 2016-Oct-01 07:05 UTC.
Position N 26°07' W 079°60'.

Length 139 m; beam 32 m.

Type: Cargo ship. MMSI: 306157000.

Date/timePositionNaut miles runAvg speedWind from/ knotsBaromVisibWave heightAir tempDewpointWater temp
2016-Sep-29 23:33N 26°07' W 079°60'7 3.4
2016-Sep-29 21:33N 26°06' W 080°07'0 0.0
2016-Sep-29 20:33N 26°06' W 080°07'0 0.0
2016-Sep-29 19:33N 26°06' W 080°07'0 0.0
2016-Sep-29 16:27N 26°06' W 080°07'0 0.0
2016-Sep-29 15:27N 26°06' W 080°07'0 0.0
2016-Sep-29 14:30N 26°06' W 080°07'0 0.0
2016-Sep-29 13:30N 26°06' W 080°07'0 0.0
2016-Sep-29 08:33N 26°06' W 080°07'0 0.0
2016-Sep-29 07:33N 26°06' W 080°07'0 0.0
2016-Sep-29 00:30N 26°06' W 080°07'0 0.0
2016-Sep-28 21:30N 26°06' W 080°07'0 0.0
2016-Sep-28 19:33N 26°06' W 080°07'0 0.0
2016-Sep-28 16:33N 26°06' W 080°07'0 0.0
2016-Sep-28 15:33N 26°06' W 080°07'0 0.0
2016-Sep-28 12:27N 26°06' W 080°07'5 1.2
2016-Sep-28 08:33N 26°04' W 080°03'34 6.7
2016-Sep-28 03:33N 25°40' W 079°37'10 9.2
2016-Sep-28 02:25N 25°49' W 079°31'8 9.4
2016-Sep-28 01:33N 25°56' W 079°28'2010.1
2016-Sep-27 23:33N 26°09' W 079°10'  

Dump ship's entire track history